createdAt,value
2022-09-13T00:02:23.131Z,100.00
2022-09-13T00:04:50.934Z,100.00
2022-09-13T00:07:18.634Z,100.00
2022-09-13T00:09:46.412Z,100.00
2022-09-13T00:12:14.273Z,100.00
2022-09-13T00:14:41.662Z,100.00
2022-09-13T00:17:08.969Z,100.00
2022-09-13T00:19:36.688Z,100.00
2022-09-13T00:22:04.134Z,100.00
2022-09-13T00:24:31.684Z,100.00
2022-09-13T00:26:59.107Z,100.00
2022-09-13T00:29:27.065Z,100.00
2022-09-13T00:31:54.757Z,100.00
2022-09-13T00:34:22.206Z,100.00
2022-09-13T00:36:49.605Z,100.00
2022-09-13T00:39:17.020Z,100.00
2022-09-13T00:41:44.646Z,100.00
2022-09-13T00:44:30.808Z,100.00
2022-09-13T00:46:58.353Z,100.00
2022-09-13T00:49:36.483Z,100.00
2022-09-13T00:52:05.346Z,100.00
2022-09-13T00:54:41.112Z,100.00
2022-09-13T00:57:10.137Z,100.00
2022-09-13T00:59:38.879Z,100.00
2022-09-13T01:02:06.372Z,100.00
2022-09-13T01:04:34.614Z,100.00
2022-09-13T01:07:02.831Z,100.00
2022-09-13T01:09:33.438Z,100.00
2022-09-13T01:12:04.628Z,100.00
2022-09-13T01:14:32.332Z,100.00
2022-09-13T01:17:01.270Z,100.00
2022-09-13T01:19:30.471Z,100.00
2022-09-13T01:22:10.215Z,100.00
2022-09-13T01:24:41.452Z,100.00
2022-09-13T01:27:27.556Z,100.00
2022-09-13T01:30:13.863Z,100.00
2022-09-13T01:33:02.014Z,100.00
2022-09-13T01:35:38.670Z,100.00
2022-09-13T01:38:22.138Z,100.00
2022-09-13T01:41:07.323Z,100.00
2022-09-13T01:43:44.237Z,100.00
2022-09-13T01:46:15.106Z,100.00
2022-09-13T01:48:58.422Z,100.00
2022-09-13T01:51:27.928Z,100.00
2022-09-13T01:54:08.241Z,100.00
2022-09-13T01:56:35.684Z,100.00
2022-09-13T01:59:12.206Z,100.00
2022-09-13T02:01:41.062Z,100.00
2022-09-13T02:04:09.860Z,100.00
2022-09-13T02:06:39.071Z,100.00
2022-09-13T02:09:12.007Z,100.00
2022-09-13T02:11:40.337Z,100.00
2022-09-13T02:14:10.010Z,100.00
2022-09-13T02:16:42.081Z,100.00
2022-09-13T02:19:19.166Z,100.00
2022-09-13T02:21:48.108Z,100.00
2022-09-13T02:24:19.828Z,100.00
2022-09-13T02:26:47.438Z,100.00
2022-09-13T02:29:17.214Z,100.00
2022-09-13T02:31:56.997Z,100.00
2022-09-13T02:34:32.371Z,100.00
2022-09-13T02:36:59.866Z,100.00
2022-09-13T02:39:27.657Z,100.00
2022-09-13T02:42:14.006Z,100.00
2022-09-13T02:44:42.643Z,100.00
2022-09-13T02:47:23.165Z,100.00
2022-09-13T02:50:09.767Z,100.00
2022-09-13T02:52:48.761Z,100.00
2022-09-13T02:55:42.452Z,100.00
2022-09-13T02:58:11.516Z,100.00
2022-09-13T03:00:39.439Z,100.00
2022-09-13T03:03:07.538Z,100.00
2022-09-13T03:05:34.986Z,100.00
2022-09-13T03:08:02.574Z,100.00
2022-09-13T03:10:36.987Z,100.00
2022-09-13T03:13:35.011Z,100.00
2022-09-13T03:16:07.248Z,100.00
2022-09-13T03:18:46.649Z,100.00
2022-09-13T03:21:34.481Z,100.00
2022-09-13T03:24:11.202Z,100.00
2022-09-13T03:26:41.522Z,100.00
2022-09-13T03:29:20.062Z,100.00
2022-09-13T03:32:10.177Z,100.00
2022-09-13T03:34:57.206Z,100.00
2022-09-13T03:37:29.528Z,100.00
2022-09-13T03:39:58.038Z,100.00
2022-09-13T03:42:28.169Z,100.00
2022-09-13T03:44:55.932Z,100.00
2022-09-13T03:47:24.202Z,100.00
2022-09-13T03:49:52.095Z,100.00
2022-09-13T03:52:19.688Z,100.00
2022-09-13T03:54:46.985Z,100.00
2022-09-13T03:57:15.533Z,100.00
2022-09-13T03:59:46.627Z,100.00
2022-09-13T04:02:14.599Z,100.00
2022-09-13T04:04:42.304Z,100.00
2022-09-13T04:07:11.006Z,100.00
2022-09-13T04:09:38.684Z,100.00
2022-09-13T04:12:06.440Z,100.00
2022-09-13T04:14:33.843Z,100.00
2022-09-13T04:17:01.348Z,100.00
2022-09-13T04:19:29.046Z,100.00
2022-09-13T04:21:56.698Z,100.00
2022-09-13T04:24:25.062Z,100.00
2022-09-13T04:26:53.801Z,100.00
2022-09-13T04:29:21.624Z,100.00
2022-09-13T04:31:49.530Z,100.00
2022-09-13T04:34:18.615Z,100.00
2022-09-13T04:36:47.437Z,100.00
2022-09-13T04:39:15.319Z,100.00
2022-09-13T04:41:44.784Z,100.00
2022-09-13T04:44:12.519Z,100.00
2022-09-13T04:46:39.934Z,100.00
2022-09-13T04:49:07.407Z,100.00
2022-09-13T04:51:34.871Z,100.00
2022-09-13T04:54:02.886Z,100.00
2022-09-13T04:56:30.356Z,100.00
2022-09-13T04:58:58.360Z,100.00
2022-09-13T05:01:27.876Z,100.00
2022-09-13T05:03:55.866Z,100.00
2022-09-13T05:06:23.260Z,100.00
2022-09-13T05:08:52.394Z,100.00
2022-09-13T05:11:19.988Z,100.00
2022-09-13T05:13:53.243Z,100.00
2022-09-13T05:16:21.541Z,100.00
2022-09-13T05:18:49.192Z,100.00
2022-09-13T05:21:16.752Z,100.00
2022-09-13T05:23:44.580Z,100.00
2022-09-13T05:26:12.053Z,100.00
2022-09-13T05:28:39.474Z,100.00
2022-09-13T05:31:07.922Z,100.00
2022-09-13T05:33:36.975Z,100.00
2022-09-13T05:36:05.915Z,100.00
2022-09-13T05:38:33.868Z,100.00
2022-09-13T05:41:02.460Z,100.00
2022-09-13T05:43:30.792Z,100.00
2022-09-13T05:46:07.912Z,100.00
2022-09-13T05:48:35.961Z,100.00
2022-09-13T05:51:10.632Z,100.00
2022-09-13T05:53:40.024Z,100.00
2022-09-13T05:56:15.826Z,100.00
2022-09-13T05:58:45.773Z,100.00
2022-09-13T06:01:13.286Z,100.00
2022-09-13T06:03:40.831Z,100.00
2022-09-13T06:06:08.426Z,100.00
2022-09-13T06:08:36.062Z,100.00
2022-09-13T06:11:10.649Z,100.00
2022-09-13T06:13:38.978Z,100.00
2022-09-13T06:16:07.714Z,100.00
2022-09-13T06:18:36.075Z,100.00
2022-09-13T06:21:07.663Z,100.00
2022-09-13T06:23:35.800Z,100.00
2022-09-13T06:26:22.208Z,100.00
2022-09-13T06:28:54.035Z,100.00
2022-09-13T06:31:26.601Z,100.00
2022-09-13T06:33:58.133Z,100.00
2022-09-13T06:36:26.124Z,100.00
2022-09-13T06:38:57.915Z,100.00
2022-09-13T06:41:28.496Z,100.00
2022-09-13T06:43:57.743Z,100.00
2022-09-13T06:46:26.777Z,100.00
2022-09-13T06:48:54.355Z,100.00
2022-09-13T06:51:22.708Z,100.00
2022-09-13T06:53:50.516Z,100.00
2022-09-13T06:56:28.151Z,100.00
2022-09-13T06:58:58.947Z,100.00
2022-09-13T07:01:27.610Z,100.00
2022-09-13T07:03:55.981Z,100.00
2022-09-13T07:06:24.373Z,100.00
2022-09-13T07:08:53.327Z,100.00
2022-09-13T07:11:21.920Z,100.00
2022-09-13T07:13:53.799Z,100.00
2022-09-13T07:16:22.027Z,100.00
2022-09-13T07:18:53.507Z,100.00
2022-09-13T07:21:21.416Z,100.00
2022-09-13T07:23:49.241Z,100.00
2022-09-13T07:26:17.045Z,100.00
2022-09-13T07:28:47.302Z,100.00
2022-09-13T07:31:16.182Z,100.00
2022-09-13T07:33:43.820Z,100.00
2022-09-13T07:36:12.149Z,100.00
2022-09-13T07:38:40.448Z,100.00
2022-09-13T07:41:19.622Z,100.00
2022-09-13T07:43:47.086Z,100.00
2022-09-13T07:46:15.670Z,100.00
2022-09-13T07:48:44.121Z,100.00
2022-09-13T07:51:11.528Z,100.00
2022-09-13T07:53:39.489Z,100.00
2022-09-13T07:56:07.560Z,100.00
2022-09-13T07:58:36.513Z,100.00
2022-09-13T08:01:08.003Z,100.00
2022-09-13T08:03:35.953Z,100.00
2022-09-13T08:06:03.532Z,100.00
2022-09-13T08:08:31.218Z,100.00
2022-09-13T08:10:58.738Z,100.00
2022-09-13T08:13:26.622Z,100.00
2022-09-13T08:15:53.987Z,100.00
2022-09-13T08:18:21.896Z,100.00
2022-09-13T08:20:49.476Z,100.00
2022-09-13T08:23:16.967Z,100.00
2022-09-13T08:25:44.511Z,100.00
2022-09-13T08:28:15.693Z,100.00
2022-09-13T08:30:43.788Z,100.00
2022-09-13T08:33:11.467Z,100.00
2022-09-13T08:35:40.907Z,100.00
2022-09-13T08:38:08.315Z,100.00
2022-09-13T08:40:40.332Z,100.00
2022-09-13T08:43:07.896Z,100.00
2022-09-13T08:45:35.446Z,100.00
2022-09-13T08:48:04.382Z,100.00
2022-09-13T08:50:32.789Z,100.00
2022-09-13T08:53:12.464Z,100.00
2022-09-13T08:55:42.882Z,100.00
2022-09-13T08:58:13.580Z,100.00
2022-09-13T09:00:41.317Z,100.00
2022-09-13T09:03:12.443Z,100.00
2022-09-13T09:05:43.751Z,100.00
2022-09-13T09:08:12.533Z,100.00
2022-09-13T09:10:41.601Z,100.00
2022-09-13T09:13:10.335Z,100.00
2022-09-13T09:15:42.410Z,100.00
2022-09-13T09:18:13.922Z,100.00
2022-09-13T09:20:42.377Z,100.00
2022-09-13T09:23:30.411Z,100.00
2022-09-13T09:26:17.209Z,100.00
2022-09-13T09:28:48.036Z,100.00
2022-09-13T09:31:17.557Z,100.00
2022-09-13T09:34:08.125Z,100.00
2022-09-13T09:36:46.273Z,100.00
2022-09-13T09:39:14.331Z,100.00
2022-09-13T09:41:41.801Z,100.00
2022-09-13T09:44:22.061Z,99.03
2022-09-13T09:46:59.715Z,96.21
2022-09-13T09:49:48.022Z,95.36
2022-09-13T09:52:16.604Z,93.71
2022-09-13T09:54:44.461Z,91.37
2022-09-13T09:57:11.926Z,92.22
2022-09-13T09:59:39.933Z,91.24
2022-09-13T10:02:20.687Z,89.35
2022-09-13T10:04:55.434Z,90.29
2022-09-13T10:07:26.612Z,89.57
2022-09-13T10:10:01.542Z,87.11
2022-09-13T10:12:30.050Z,82.95
2022-09-13T10:15:11.026Z,82.42
2022-09-13T10:17:40.296Z,78.56
2022-09-13T10:20:14.309Z,79.25
2022-09-13T10:22:43.096Z,78.35
2022-09-13T10:25:23.683Z,79.77
2022-09-13T10:27:55.090Z,82.98
2022-09-13T10:30:31.917Z,83.58
2022-09-13T10:32:59.526Z,81.42
2022-09-13T10:35:27.192Z,80.80
2022-09-13T10:37:54.706Z,81.40
2022-09-13T10:40:34.194Z,82.22
2022-09-13T10:43:03.605Z,81.31
2022-09-13T10:45:32.429Z,81.70
2022-09-13T10:48:20.429Z,82.79
2022-09-13T10:51:07.374Z,81.06
2022-09-13T10:53:36.882Z,83.99
2022-09-13T10:56:04.770Z,83.30
2022-09-13T10:58:32.313Z,82.25
2022-09-13T11:00:59.964Z,83.74
2022-09-13T11:03:40.096Z,82.10
2022-09-13T11:06:20.989Z,82.19
2022-09-13T11:09:07.264Z,83.21
2022-09-13T11:11:51.219Z,82.14
2022-09-13T11:14:51.432Z,81.81
2022-09-13T11:17:45.292Z,82.33
2022-09-13T11:20:37.773Z,82.30
2022-09-13T11:23:10.829Z,83.93
2022-09-13T11:25:49.330Z,81.47
2022-09-13T11:28:26.115Z,83.53
2022-09-13T11:31:05.292Z,83.83
2022-09-13T11:33:48.200Z,82.89
2022-09-13T11:36:15.881Z,80.38
2022-09-13T11:39:01.947Z,80.09
2022-09-13T11:42:01.226Z,80.24
2022-09-13T11:44:28.662Z,80.39
2022-09-13T11:46:58.762Z,79.42
2022-09-13T11:49:38.198Z,79.67
2022-09-13T11:52:17.833Z,79.66
2022-09-13T11:54:51.396Z,82.85
2022-09-13T11:57:20.998Z,80.01
2022-09-13T11:59:53.685Z,75.11
2022-09-13T12:02:47.881Z,76.08
2022-09-13T12:05:24.256Z,74.58
2022-09-13T12:08:07.888Z,72.30
2022-09-13T12:10:38.980Z,71.04
2022-09-13T12:13:07.008Z,68.97
2022-09-13T12:15:38.544Z,69.97
2022-09-13T12:18:08.131Z,69.94
2022-09-13T12:20:39.906Z,70.30
2022-09-13T12:23:30.689Z,68.35
2022-09-13T12:25:59.707Z,66.80
2022-09-13T12:28:28.511Z,68.35
2022-09-13T12:30:57.107Z,67.65
2022-09-13T12:33:24.395Z,67.46
2022-09-13T12:36:11.049Z,70.08
2022-09-13T12:38:38.513Z,69.78
2022-09-13T12:41:12.165Z,69.50
2022-09-13T12:43:43.101Z,74.53
2022-09-13T12:46:19.324Z,83.90
2022-09-13T12:48:50.485Z,88.89
2022-09-13T12:51:31.342Z,92.36
2022-09-13T12:54:17.581Z,93.66
2022-09-13T12:56:47.990Z,94.98
2022-09-13T12:59:24.682Z,98.26
2022-09-13T13:01:52.473Z,99.39
2022-09-13T13:04:24.408Z,98.92
2022-09-13T13:06:56.372Z,100.00
2022-09-13T13:09:39.400Z,100.00
2022-09-13T13:12:06.776Z,100.00
2022-09-13T13:14:40.270Z,100.00
2022-09-13T13:17:28.125Z,100.00
2022-09-13T13:19:55.700Z,100.00
2022-09-13T13:22:42.213Z,99.73
2022-09-13T13:25:28.387Z,100.00
2022-09-13T13:27:55.810Z,100.00
2022-09-13T13:30:40.485Z,100.00
2022-09-13T13:33:13.980Z,100.00
2022-09-13T13:35:41.486Z,100.00
2022-09-13T13:38:24.611Z,100.00
2022-09-13T13:40:52.659Z,100.00
2022-09-13T13:43:32.854Z,100.00
2022-09-13T13:46:12.671Z,100.00
2022-09-13T13:48:40.655Z,100.00
2022-09-13T13:51:11.892Z,100.00
2022-09-13T13:53:39.705Z,100.00
2022-09-13T13:56:16.312Z,100.00
2022-09-13T13:58:46.534Z,100.00
2022-09-13T14:01:18.799Z,100.00
2022-09-13T14:03:58.073Z,100.00
2022-09-13T14:06:30.180Z,100.00
2022-09-13T14:11:36.181Z,100.00
2022-09-13T14:14:30.308Z,100.00
2022-09-13T14:17:08.049Z,100.00
2022-09-13T14:19:42.904Z,100.00
2022-09-13T14:22:17.361Z,100.00
2022-09-13T14:24:46.599Z,100.00
2022-09-13T14:27:26.678Z,100.00
2022-09-13T14:29:55.262Z,100.00
2022-09-13T14:32:23.217Z,100.00
2022-09-13T14:35:00.755Z,100.00
2022-09-13T14:37:35.378Z,100.00
2022-09-13T14:40:04.447Z,100.00
2022-09-13T14:42:58.151Z,100.00
2022-09-13T14:45:30.326Z,100.00
2022-09-13T14:48:06.756Z,100.00
2022-09-13T14:50:38.497Z,100.00
2022-09-13T14:53:06.988Z,100.00
2022-09-13T14:55:38.486Z,100.00
2022-09-13T14:58:06.433Z,100.00
2022-09-13T15:00:48.497Z,100.00
2022-09-13T15:03:16.255Z,100.00
2022-09-13T15:05:50.358Z,100.00
2022-09-13T15:08:27.927Z,100.00
2022-09-13T15:10:56.953Z,100.00
2022-09-13T15:13:24.796Z,100.00
2022-09-13T15:15:52.231Z,100.00
2022-09-13T15:18:25.816Z,100.00
2022-09-13T15:20:59.983Z,100.00
2022-09-13T15:23:37.989Z,100.00
2022-09-13T15:26:06.128Z,100.00
2022-09-13T15:28:34.390Z,100.00
2022-09-13T15:31:02.142Z,100.00
2022-09-13T15:33:34.407Z,100.00
2022-09-13T15:36:15.319Z,100.00
2022-09-13T15:38:58.520Z,100.00
2022-09-13T15:41:28.735Z,100.00
2022-09-13T15:43:56.136Z,100.00
2022-09-13T15:46:24.264Z,100.00
2022-09-13T15:48:52.788Z,100.00
2022-09-13T15:51:20.187Z,100.00
2022-09-13T15:53:47.567Z,100.00
2022-09-13T15:56:16.174Z,100.00
2022-09-13T15:58:43.486Z,100.00
2022-09-13T16:01:14.110Z,100.00
2022-09-13T16:03:41.678Z,100.00
2022-09-13T16:06:09.462Z,100.00
2022-09-13T16:08:37.912Z,100.00
2022-09-13T16:11:05.934Z,100.00
2022-09-13T16:13:34.444Z,100.00
2022-09-13T16:16:01.995Z,100.00
2022-09-13T16:18:29.611Z,100.00
2022-09-13T16:20:57.329Z,100.00
2022-09-13T16:23:24.716Z,100.00
2022-09-13T16:25:53.114Z,100.00
2022-09-13T16:28:21.287Z,100.00
2022-09-13T16:30:48.770Z,100.00
2022-09-13T16:33:16.147Z,100.00
2022-09-13T16:35:43.470Z,100.00
2022-09-13T16:38:10.939Z,100.00
2022-09-13T16:40:40.015Z,100.00
2022-09-13T16:43:07.689Z,100.00
2022-09-13T16:45:35.229Z,100.00
2022-09-13T16:48:03.220Z,100.00
2022-09-13T16:50:34.348Z,100.00
2022-09-13T16:53:02.493Z,100.00
2022-09-13T16:55:30.305Z,100.00
2022-09-13T16:57:57.787Z,100.00
2022-09-13T17:00:28.656Z,100.00
2022-09-13T17:02:56.704Z,100.00
2022-09-13T17:05:24.583Z,100.00
2022-09-13T17:07:52.187Z,100.00
2022-09-13T17:10:20.573Z,100.00
2022-09-13T17:12:50.210Z,100.00
2022-09-13T17:15:18.075Z,100.00
2022-09-13T17:17:45.487Z,100.00
2022-09-13T17:20:13.417Z,100.00
2022-09-13T17:22:40.812Z,100.00
2022-09-13T17:25:08.396Z,100.00
2022-09-13T17:27:36.644Z,100.00
2022-09-13T17:30:05.351Z,100.00
2022-09-13T17:32:32.916Z,100.00
2022-09-13T17:35:00.335Z,100.00
2022-09-13T17:37:27.695Z,100.00
2022-09-13T17:39:55.148Z,100.00
2022-09-13T17:42:23.601Z,100.00
2022-09-13T17:44:51.052Z,100.00
2022-09-13T17:47:18.475Z,100.00
2022-09-13T17:49:46.747Z,100.00
2022-09-13T17:52:14.663Z,100.00
2022-09-13T17:54:42.076Z,100.00
2022-09-13T17:57:11.986Z,100.00
2022-09-13T17:59:39.561Z,100.00
2022-09-13T18:02:06.942Z,100.00
2022-09-13T18:04:34.483Z,100.00
2022-09-13T18:07:01.854Z,100.00
2022-09-13T18:09:30.103Z,100.00
2022-09-13T18:11:57.458Z,100.00
2022-09-13T18:14:27.725Z,100.00
2022-09-13T18:16:57.418Z,100.00
2022-09-13T18:19:44.361Z,100.00
2022-09-13T18:22:12.205Z,100.00
2022-09-13T18:24:40.061Z,100.00
2022-09-13T18:27:07.489Z,100.00
2022-09-13T18:29:34.918Z,100.00
2022-09-13T18:32:02.432Z,100.00
2022-09-13T18:34:30.004Z,100.00
2022-09-13T18:36:57.303Z,100.00
2022-09-13T18:39:24.714Z,100.00
2022-09-13T18:41:51.964Z,100.00
2022-09-13T18:44:19.499Z,100.00
2022-09-13T18:46:47.519Z,100.00
2022-09-13T18:49:15.351Z,100.00
2022-09-13T18:51:43.810Z,100.00
2022-09-13T18:54:12.411Z,100.00
2022-09-13T18:56:41.552Z,100.00
2022-09-13T18:59:09.660Z,100.00
2022-09-13T19:01:38.508Z,100.00
2022-09-13T19:04:15.648Z,100.00
2022-09-13T19:06:47.794Z,100.00
2022-09-13T19:09:15.636Z,100.00
2022-09-13T19:11:47.637Z,100.00
2022-09-13T19:14:24.126Z,100.00
2022-09-13T19:16:52.364Z,100.00
2022-09-13T19:19:20.691Z,100.00
2022-09-13T19:21:48.051Z,100.00
2022-09-13T19:24:18.333Z,100.00
2022-09-13T19:26:46.726Z,100.00
2022-09-13T19:29:14.866Z,100.00
2022-09-13T19:31:44.309Z,100.00
2022-09-13T19:34:12.363Z,100.00
2022-09-13T19:36:43.243Z,100.00
2022-09-13T19:39:13.384Z,100.00
2022-09-13T19:41:41.043Z,100.00
2022-09-13T19:44:08.957Z,100.00
2022-09-13T19:46:37.951Z,100.00
2022-09-13T19:49:05.742Z,100.00
2022-09-13T19:51:34.786Z,100.00
2022-09-13T19:54:02.316Z,100.00
2022-09-13T19:56:30.812Z,100.00
2022-09-13T19:58:58.556Z,100.00
2022-09-13T20:01:26.668Z,100.00
2022-09-13T20:03:55.018Z,100.00
2022-09-13T20:06:25.176Z,100.00
2022-09-13T20:08:52.855Z,100.00
2022-09-13T20:11:20.991Z,100.00
2022-09-13T20:13:49.075Z,100.00
2022-09-13T20:16:17.829Z,100.00
2022-09-13T20:18:45.990Z,100.00
2022-09-13T20:21:13.481Z,100.00
2022-09-13T20:23:41.438Z,100.00
2022-09-13T20:26:21.890Z,100.00
2022-09-13T20:28:50.338Z,100.00
2022-09-13T20:31:18.332Z,100.00
2022-09-13T20:33:45.714Z,100.00
2022-09-13T20:36:13.706Z,100.00
2022-09-13T20:38:41.319Z,100.00
2022-09-13T20:41:13.220Z,100.00
2022-09-13T20:43:43.739Z,100.00
2022-09-13T20:46:12.415Z,100.00
2022-09-13T20:48:40.031Z,100.00
2022-09-13T20:51:09.014Z,100.00
2022-09-13T20:53:37.844Z,100.00
2022-09-13T20:56:11.332Z,100.00
2022-09-13T20:58:39.010Z,100.00
2022-09-13T21:01:20.137Z,100.00
2022-09-13T21:03:51.610Z,100.00
2022-09-13T21:06:19.914Z,100.00
2022-09-13T21:08:49.582Z,100.00
2022-09-13T21:11:20.840Z,100.00
2022-09-13T21:13:50.854Z,100.00
2022-09-13T21:16:19.586Z,100.00
2022-09-13T21:18:47.372Z,100.00
2022-09-13T21:21:15.969Z,100.00
2022-09-13T21:23:44.025Z,100.00
2022-09-13T21:26:12.655Z,100.00
2022-09-13T21:28:40.556Z,100.00
2022-09-13T21:31:11.795Z,100.00
2022-09-13T21:33:39.308Z,100.00
2022-09-13T21:36:07.029Z,100.00
2022-09-13T21:38:35.088Z,100.00
2022-09-13T21:41:10.561Z,100.00
2022-09-13T21:43:38.677Z,100.00
2022-09-13T21:46:07.233Z,100.00
2022-09-13T21:48:34.960Z,100.00
2022-09-13T21:51:05.468Z,100.00
2022-09-13T21:53:37.023Z,100.00
2022-09-13T21:56:08.184Z,100.00
2022-09-13T21:58:36.308Z,100.00
2022-09-13T22:01:04.489Z,100.00
2022-09-13T22:03:34.360Z,100.00
2022-09-13T22:06:01.800Z,100.00
2022-09-13T22:08:35.481Z,100.00
2022-09-13T22:11:06.018Z,100.00
2022-09-13T22:13:37.207Z,100.00
2022-09-13T22:16:08.056Z,100.00
2022-09-13T22:18:36.201Z,100.00
2022-09-13T22:21:06.996Z,100.00
2022-09-13T22:23:34.911Z,100.00
2022-09-13T22:26:08.819Z,100.00
2022-09-13T22:28:36.138Z,100.00
2022-09-13T22:31:07.347Z,100.00
2022-09-13T22:33:35.670Z,100.00
2022-09-13T22:36:07.353Z,100.00
2022-09-13T22:38:35.132Z,100.00
2022-09-13T22:41:06.726Z,100.00
2022-09-13T22:43:34.514Z,100.00
2022-09-13T22:46:05.894Z,100.00
2022-09-13T22:48:33.797Z,100.00
2022-09-13T22:51:01.191Z,100.00
2022-09-13T22:53:28.707Z,100.00
2022-09-13T22:55:56.064Z,100.00
2022-09-13T22:58:23.477Z,100.00
2022-09-13T23:00:50.771Z,100.00
2022-09-13T23:03:18.160Z,100.00
2022-09-13T23:05:52.593Z,100.00
2022-09-13T23:08:20.085Z,100.00
2022-09-13T23:10:47.438Z,100.00
2022-09-13T23:13:15.209Z,100.00
2022-09-13T23:15:42.736Z,100.00
2022-09-13T23:18:10.301Z,100.00
2022-09-13T23:20:37.746Z,100.00
2022-09-13T23:23:05.398Z,100.00
2022-09-13T23:25:33.940Z,100.00
2022-09-13T23:28:01.532Z,100.00
2022-09-13T23:30:28.837Z,100.00
2022-09-13T23:32:56.338Z,100.00
2022-09-13T23:35:23.744Z,100.00
2022-09-13T23:37:51.086Z,100.00
2022-09-13T23:40:18.432Z,100.00
2022-09-13T23:42:45.782Z,100.00
2022-09-13T23:45:13.139Z,100.00
2022-09-13T23:47:40.556Z,100.00
2022-09-13T23:50:08.037Z,100.00
2022-09-13T23:52:36.577Z,100.00
2022-09-13T23:55:04.278Z,100.00
2022-09-13T23:57:31.774Z,100.00
2022-09-13T23:59:59.175Z,100.00
